createdAt,value
2023-02-12T00:01:01.525Z,26.08
2023-02-12T00:03:27.942Z,25.08
2023-02-12T00:05:54.622Z,23.05
2023-02-12T00:08:21.168Z,22.58
2023-02-12T00:10:47.559Z,24.20
2023-02-12T00:13:15.005Z,23.98
2023-02-12T00:15:42.554Z,24.08
2023-02-12T00:18:09.058Z,23.58
2023-02-12T00:20:37.127Z,26.55
2023-02-12T00:23:04.300Z,25.50
2023-02-12T00:25:30.691Z,24.67
2023-02-12T00:27:57.608Z,24.27
2023-02-12T00:30:24.003Z,23.17
2023-02-12T00:32:50.360Z,21.10
2023-02-12T00:35:16.746Z,24.30
2023-02-12T00:37:43.123Z,25.95
2023-02-12T00:40:10.532Z,25.90
2023-02-12T00:42:36.896Z,22.38
2023-02-12T00:45:03.401Z,23.88
2023-02-12T00:47:29.745Z,22.77
2023-02-12T00:49:56.082Z,24.55
2023-02-12T00:52:22.457Z,22.42
2023-02-12T00:54:48.899Z,25.63
2023-02-12T00:57:15.295Z,25.67
2023-02-12T00:59:42.784Z,22.15
2023-02-12T01:02:09.411Z,21.90
2023-02-12T01:04:35.819Z,23.17
2023-02-12T01:07:02.293Z,22.27
2023-02-12T01:09:28.832Z,21.08
2023-02-12T01:11:55.542Z,21.05
2023-02-12T01:14:22.103Z,22.50
2023-02-12T01:16:48.483Z,22.25
2023-02-12T01:19:14.835Z,24.17
2023-02-12T01:21:42.615Z,22.17
2023-02-12T01:24:11.541Z,21.92
2023-02-12T01:26:37.895Z,19.60
2023-02-12T01:29:09.565Z,20.63
2023-02-12T01:31:38.178Z,21.70
2023-02-12T01:34:06.333Z,20.90
2023-02-12T01:36:32.978Z,22.80
2023-02-12T01:38:59.695Z,22.02
2023-02-12T01:41:31.960Z,20.17
2023-02-12T01:44:20.864Z,21.38
2023-02-12T01:46:49.444Z,21.17
2023-02-12T01:49:19.704Z,21.45
2023-02-12T01:51:46.901Z,22.25
2023-02-12T01:54:18.567Z,21.25
2023-02-12T01:56:45.042Z,21.42
2023-02-12T01:59:11.711Z,21.45
2023-02-12T02:01:38.286Z,21.70
2023-02-12T02:04:14.924Z,22.00
2023-02-12T02:06:50.940Z,23.17
2023-02-12T02:09:18.707Z,21.10
2023-02-12T02:12:03.928Z,20.60
2023-02-12T02:14:33.007Z,22.88
2023-02-12T02:17:11.278Z,22.83
2023-02-12T02:19:56.481Z,21.73
2023-02-12T02:23:20.588Z,25.02
2023-02-12T02:25:56.522Z,20.98
2023-02-12T02:28:32.793Z,21.98
2023-02-12T02:31:18.433Z,23.00
2023-02-12T02:34:04.076Z,24.35
2023-02-12T02:36:47.893Z,22.33
2023-02-12T02:39:43.247Z,20.23
2023-02-12T02:42:26.863Z,23.40
2023-02-12T02:44:55.732Z,22.47
2023-02-12T02:47:26.616Z,20.20
2023-02-12T02:50:00.045Z,20.73
2023-02-12T02:52:35.911Z,21.30
2023-02-12T02:55:11.113Z,21.10
2023-02-12T02:57:56.777Z,20.73
2023-02-12T03:00:36.538Z,20.90
2023-02-12T03:03:10.144Z,19.25
2023-02-12T03:05:43.632Z,23.02
2023-02-12T03:08:34.205Z,22.00
2023-02-12T03:11:06.597Z,21.85
2023-02-12T03:13:37.956Z,21.65
2023-02-12T03:16:26.465Z,20.75
2023-02-12T03:19:11.722Z,21.88
2023-02-12T03:21:46.435Z,21.58
2023-02-12T03:24:39.336Z,19.75
2023-02-12T03:27:26.704Z,18.40
2023-02-12T03:29:53.181Z,18.95
2023-02-12T03:32:40.935Z,20.40
2023-02-12T03:35:17.306Z,19.27
2023-02-12T03:37:55.954Z,21.52
2023-02-12T03:40:29.144Z,19.23
2023-02-12T03:43:03.222Z,19.90
2023-02-12T03:48:30.509Z,19.02
2023-02-12T03:51:04.506Z,18.70
2023-02-12T03:56:04.746Z,18.27
2023-02-12T03:58:34.146Z,19.38
2023-02-12T04:01:01.405Z,18.88
2023-02-12T04:03:29.498Z,18.38
2023-02-12T04:05:56.160Z,20.55
2023-02-12T04:08:23.805Z,19.90
2023-02-12T04:11:11.749Z,19.65
2023-02-12T04:14:05.221Z,20.13
2023-02-12T04:16:40.672Z,18.88
2023-02-12T04:19:10.003Z,18.75
2023-02-12T04:22:04.337Z,22.08
2023-02-12T04:24:49.136Z,19.52
2023-02-12T04:27:22.532Z,20.25
2023-02-12T04:29:56.048Z,19.90
2023-02-12T04:32:33.545Z,20.95
2023-02-12T04:35:08.430Z,19.27
2023-02-12T04:37:48.323Z,19.38
2023-02-12T04:40:17.644Z,20.83
2023-02-12T04:42:48.438Z,20.42
2023-02-12T04:45:24.825Z,22.33
2023-02-12T04:47:51.560Z,19.92
2023-02-12T04:50:18.785Z,20.58
2023-02-12T04:52:45.250Z,21.90
2023-02-12T04:55:12.152Z,20.77
2023-02-12T04:57:39.835Z,23.88
2023-02-12T05:00:07.451Z,22.70
2023-02-12T05:02:34.649Z,23.10
2023-02-12T05:05:01.305Z,22.48
2023-02-12T05:07:27.828Z,21.23
2023-02-12T05:09:54.693Z,20.25
2023-02-12T05:12:21.171Z,19.85
2023-02-12T05:14:47.514Z,19.60
2023-02-12T05:17:13.852Z,20.90
2023-02-12T05:19:40.229Z,24.00
2023-02-12T05:22:06.756Z,20.85
2023-02-12T05:24:33.163Z,20.95
2023-02-12T05:27:02.996Z,20.63
2023-02-12T05:29:29.358Z,19.65
2023-02-12T05:31:55.842Z,19.52
2023-02-12T05:34:22.197Z,20.65
2023-02-12T05:36:48.584Z,20.48
2023-02-12T05:39:14.969Z,19.83
2023-02-12T05:41:41.380Z,20.40
2023-02-12T05:44:07.902Z,20.35
2023-02-12T05:46:34.387Z,19.58
2023-02-12T05:49:00.806Z,21.27
2023-02-12T05:51:27.776Z,20.95
2023-02-12T05:54:01.615Z,20.63
2023-02-12T05:56:30.321Z,19.92
2023-02-12T05:59:03.250Z,19.50
2023-02-12T06:01:33.089Z,20.98
2023-02-12T06:04:00.681Z,19.73
2023-02-12T06:06:28.757Z,20.95
2023-02-12T06:08:55.195Z,20.80
2023-02-12T06:11:21.641Z,22.00
2023-02-12T06:13:48.324Z,10.75
2023-02-12T06:16:23.096Z,22.23
2023-02-12T06:18:50.172Z,26.90
2023-02-12T06:21:18.048Z,24.63
2023-02-12T06:23:44.440Z,22.83
2023-02-12T06:26:10.797Z,21.80
2023-02-12T06:28:37.318Z,20.65
2023-02-12T06:31:04.056Z,21.65
2023-02-12T06:33:30.511Z,21.55
2023-02-12T06:35:57.327Z,21.15
2023-02-12T06:38:23.981Z,19.77
2023-02-12T06:40:50.302Z,19.65
2023-02-12T06:43:16.694Z,21.20
2023-02-12T06:45:43.028Z,22.50
2023-02-12T06:48:09.427Z,21.90
2023-02-12T06:50:35.857Z,21.30
2023-02-12T06:53:02.256Z,21.85
2023-02-12T06:55:28.638Z,23.95
2023-02-12T06:57:55.349Z,23.25
2023-02-12T07:00:22.081Z,24.33
2023-02-12T07:02:57.429Z,22.73
2023-02-12T07:05:23.931Z,24.63
2023-02-12T07:07:50.345Z,24.13
2023-02-12T07:10:17.585Z,23.58
2023-02-12T07:12:43.977Z,25.38
2023-02-12T07:15:10.387Z,24.23
2023-02-12T07:17:36.696Z,22.00
2023-02-12T07:20:04.365Z,24.13
2023-02-12T07:22:30.731Z,24.30
2023-02-12T07:24:57.202Z,23.77
2023-02-12T07:27:23.566Z,24.65
2023-02-12T07:29:49.876Z,24.08
2023-02-12T07:32:16.295Z,27.42
2023-02-12T07:34:42.759Z,24.02
2023-02-12T07:37:09.128Z,24.30
2023-02-12T07:39:35.507Z,23.95
2023-02-12T07:42:01.893Z,25.25
2023-02-12T07:44:28.277Z,23.20
2023-02-12T07:46:54.599Z,23.85
2023-02-12T07:49:21.998Z,21.30
2023-02-12T07:51:49.582Z,21.73
2023-02-12T07:54:16.493Z,22.00
2023-02-12T07:56:46.609Z,23.55
2023-02-12T07:59:15.222Z,23.40
2023-02-12T08:01:51.898Z,22.85
2023-02-12T08:04:21.353Z,25.58
2023-02-12T08:06:49.714Z,25.67
2023-02-12T08:09:18.912Z,26.33
2023-02-12T08:11:45.637Z,28.38
2023-02-12T08:14:14.108Z,27.58
2023-02-12T08:16:41.573Z,30.45
2023-02-12T08:19:17.923Z,28.55
2023-02-12T08:21:50.389Z,30.23
2023-02-12T08:24:16.742Z,31.40
2023-02-12T08:26:43.138Z,31.70
2023-02-12T08:29:12.671Z,30.88
2023-02-12T08:31:41.685Z,30.48
2023-02-12T08:34:16.670Z,32.40
2023-02-12T08:36:44.151Z,33.58
2023-02-12T08:39:10.732Z,32.15
2023-02-12T08:41:37.332Z,34.25
2023-02-12T08:44:04.878Z,36.70
2023-02-12T08:46:36.884Z,36.78
2023-02-12T08:49:05.965Z,35.28
2023-02-12T08:51:34.128Z,34.88
2023-02-12T08:54:02.716Z,37.42
2023-02-12T08:56:30.000Z,37.05
2023-02-12T08:59:01.000Z,39.03
2023-02-12T09:01:29.440Z,35.30
2023-02-12T09:03:56.347Z,37.33
2023-02-12T09:06:23.911Z,34.42
2023-02-12T09:08:50.744Z,36.22
2023-02-12T09:11:30.344Z,35.38
2023-02-12T09:13:59.566Z,35.63
2023-02-12T09:16:27.348Z,36.45
2023-02-12T09:18:54.871Z,36.05
2023-02-12T09:21:21.905Z,35.95
2023-02-12T09:23:48.813Z,38.42
2023-02-12T09:26:20.601Z,37.20
2023-02-12T09:28:48.476Z,37.00
2023-02-12T09:31:28.680Z,37.00
2023-02-12T09:33:58.205Z,38.45
2023-02-12T09:36:25.081Z,37.30
2023-02-12T09:38:51.460Z,38.15
2023-02-12T09:42:00.272Z,37.45
2023-02-12T09:44:35.395Z,36.40
2023-02-12T09:47:05.801Z,36.10
2023-02-12T09:50:01.927Z,35.08
2023-02-12T09:52:29.004Z,38.08
2023-02-12T09:54:56.312Z,37.08
2023-02-12T09:57:22.619Z,38.78
2023-02-12T09:59:54.822Z,40.72
2023-02-12T10:02:22.058Z,42.67
2023-02-12T10:05:00.595Z,40.80
2023-02-12T10:07:43.075Z,40.67
2023-02-12T10:10:20.393Z,41.85
2023-02-12T10:13:00.186Z,40.63
2023-02-12T10:15:29.218Z,41.65
2023-02-12T10:18:03.355Z,41.03
2023-02-12T10:23:23.884Z,40.72
2023-02-12T10:25:56.539Z,40.78
2023-02-12T10:28:39.158Z,39.42
2023-02-12T10:31:15.464Z,39.70
2023-02-12T10:33:48.797Z,40.25
2023-02-12T10:36:27.022Z,40.23
2023-02-12T10:39:00.124Z,39.17
2023-02-12T10:41:28.769Z,38.17
2023-02-12T10:43:55.192Z,41.53
2023-02-12T10:46:21.589Z,36.85
2023-02-12T10:48:50.020Z,39.25
2023-02-12T10:51:25.618Z,39.50
2023-02-12T10:53:51.971Z,38.22
2023-02-12T10:56:21.170Z,38.88
2023-02-12T10:58:50.266Z,39.35
2023-02-12T11:01:21.799Z,38.65
2023-02-12T11:03:48.576Z,39.90
2023-02-12T11:06:21.087Z,37.90
2023-02-12T11:08:48.259Z,36.35
2023-02-12T11:11:16.187Z,37.75
2023-02-12T11:14:07.186Z,37.80
2023-02-12T11:16:38.678Z,37.08
2023-02-12T11:19:07.208Z,34.92
2023-02-12T11:21:34.941Z,34.55
2023-02-12T11:24:25.971Z,35.72
2023-02-12T11:26:52.371Z,33.83
2023-02-12T11:29:24.396Z,32.20
2023-02-12T11:32:02.377Z,35.15
2023-02-12T11:34:29.731Z,34.35
2023-02-12T11:36:56.751Z,33.50
2023-02-12T11:39:32.363Z,35.95
2023-02-12T11:42:05.499Z,34.92
2023-02-12T11:44:37.470Z,34.50
2023-02-12T11:47:17.180Z,33.75
2023-02-12T11:49:55.766Z,34.80
2023-02-12T11:52:26.792Z,33.90
2023-02-12T11:54:57.548Z,33.50
2023-02-12T11:57:40.112Z,32.00
2023-02-12T12:00:38.208Z,33.30
2023-02-12T12:03:14.826Z,34.03
2023-02-12T12:05:51.067Z,33.70
2023-02-12T12:08:29.884Z,34.22
2023-02-12T12:11:00.767Z,33.38
2023-02-12T12:13:35.307Z,31.90
2023-02-12T12:16:29.220Z,33.03
2023-02-12T12:19:19.736Z,33.87
2023-02-12T12:21:57.802Z,33.15
2023-02-12T12:24:35.165Z,32.92
2023-02-12T12:27:39.358Z,32.17
2023-02-12T12:30:16.593Z,33.50
2023-02-12T12:32:45.803Z,33.10
2023-02-12T12:35:14.825Z,33.42
2023-02-12T12:38:02.337Z,30.50
2023-02-12T12:40:54.982Z,32.28
2023-02-12T12:43:31.049Z,31.75
2023-02-12T12:46:18.698Z,31.08
2023-02-12T12:48:56.948Z,31.13
2023-02-12T12:51:53.592Z,33.05
2023-02-12T12:54:44.840Z,30.70
2023-02-12T12:57:18.524Z,32.03
2023-02-12T13:00:00.197Z,31.98
2023-02-12T13:03:01.922Z,31.35
2023-02-12T13:05:52.523Z,30.08
2023-02-12T13:08:46.078Z,29.95
2023-02-12T13:11:39.641Z,30.98
2023-02-12T13:14:24.627Z,32.17
2023-02-12T13:17:29.645Z,32.22
2023-02-12T13:20:18.557Z,30.88
2023-02-12T13:23:05.989Z,28.85
2023-02-12T13:25:42.613Z,28.08
2023-02-12T13:28:21.250Z,25.25
2023-02-12T13:30:50.445Z,15.30
2023-02-12T13:33:28.612Z,2.80
2023-02-12T13:35:59.353Z,17.65
2023-02-12T13:38:33.371Z,21.73
2023-02-12T13:41:07.306Z,16.48
2023-02-12T13:43:44.265Z,15.57
2023-02-12T13:46:25.209Z,19.33
2023-02-12T13:49:00.552Z,4.47
2023-02-12T13:51:40.396Z,12.30
2023-02-12T13:54:25.423Z,7.78
2023-02-12T13:56:54.061Z,6.70
2023-02-12T13:59:32.342Z,13.88
2023-02-12T14:02:25.117Z,17.92
2023-02-12T14:05:01.881Z,17.20
2023-02-12T14:07:42.770Z,6.63
2023-02-12T14:10:45.412Z,17.90
2023-02-12T14:13:18.223Z,16.35
2023-02-12T14:15:48.653Z,11.70
2023-02-12T14:22:23.357Z,15.05
2023-02-12T14:24:54.929Z,14.13
2023-02-12T14:27:41.430Z,14.65
2023-02-12T14:30:07.696Z,15.07
2023-02-12T14:32:46.138Z,11.48
2023-02-12T14:35:31.978Z,16.10
2023-02-12T14:38:16.296Z,18.00
2023-02-12T14:40:47.110Z,16.25
2023-02-12T14:43:32.912Z,16.02
2023-02-12T14:46:22.017Z,16.10
2023-02-12T14:48:55.061Z,14.10
2023-02-12T14:51:43.623Z,14.05
2023-02-12T14:54:30.172Z,16.13
2023-02-12T14:57:01.404Z,14.52
2023-02-12T14:59:28.190Z,16.55
2023-02-12T15:01:55.405Z,15.10
2023-02-12T15:04:27.508Z,15.00
2023-02-12T15:06:58.719Z,14.73
2023-02-12T15:09:36.333Z,16.75
2023-02-12T15:12:07.753Z,16.15
2023-02-12T15:14:40.329Z,16.98
2023-02-12T15:17:25.221Z,18.65
2023-02-12T15:19:57.329Z,17.13
2023-02-12T15:22:31.226Z,14.73
2023-02-12T15:25:29.276Z,17.15
2023-02-12T15:28:00.987Z,16.27
2023-02-12T15:30:30.620Z,15.68
2023-02-12T15:32:58.663Z,15.98
2023-02-12T15:35:28.193Z,14.85
2023-02-12T15:37:55.741Z,15.40
2023-02-12T15:40:22.581Z,14.65
2023-02-12T15:43:03.968Z,14.02
2023-02-12T15:45:32.547Z,14.20
2023-02-12T15:48:11.794Z,14.30
2023-02-12T15:50:56.176Z,14.10
2023-02-12T15:55:51.186Z,12.98
2023-02-12T15:58:23.804Z,13.23
2023-02-12T16:00:50.722Z,10.38
2023-02-12T16:03:22.223Z,12.60
2023-02-12T16:05:49.710Z,12.23
2023-02-12T16:08:17.314Z,12.88
2023-02-12T16:10:45.856Z,13.75
2023-02-12T16:13:17.074Z,13.65
2023-02-12T16:15:43.806Z,14.23
2023-02-12T16:18:24.624Z,14.00
2023-02-12T16:21:05.383Z,14.05
2023-02-12T16:23:31.819Z,14.32
2023-02-12T16:25:58.930Z,15.45
2023-02-12T16:28:29.755Z,15.27
2023-02-12T16:31:13.268Z,14.52
2023-02-12T16:33:39.585Z,15.27
2023-02-12T16:36:22.398Z,16.00
2023-02-12T16:38:56.696Z,15.70
2023-02-12T16:41:33.113Z,14.10
2023-02-12T16:43:59.329Z,16.20
2023-02-12T16:46:26.240Z,16.83
2023-02-12T16:48:53.587Z,17.10
2023-02-12T16:51:34.843Z,16.25
2023-02-12T16:54:03.249Z,16.67
2023-02-12T16:56:37.755Z,17.20
2023-02-12T16:59:04.880Z,15.98
2023-02-12T17:01:34.439Z,17.65
2023-02-12T17:04:06.541Z,16.13
2023-02-12T17:06:33.312Z,15.20
2023-02-12T17:09:00.016Z,14.90
2023-02-12T17:11:27.675Z,14.52
2023-02-12T17:13:55.001Z,13.60
2023-02-12T17:16:30.444Z,12.70
2023-02-12T17:18:58.328Z,12.30
2023-02-12T17:21:30.620Z,12.70
2023-02-12T17:23:57.267Z,12.30
2023-02-12T17:26:24.461Z,12.50
2023-02-12T17:28:50.808Z,12.38
2023-02-12T17:31:17.549Z,12.52
2023-02-12T17:33:44.356Z,12.35
2023-02-12T17:36:11.857Z,12.13
2023-02-12T17:38:38.208Z,12.93
2023-02-12T17:41:10.878Z,13.65
2023-02-12T17:43:37.296Z,12.43
2023-02-12T17:46:28.893Z,13.35
2023-02-12T17:48:56.253Z,13.85
2023-02-12T17:51:22.721Z,13.43
2023-02-12T17:53:49.148Z,11.70
2023-02-12T17:56:18.898Z,12.88
2023-02-12T17:58:46.108Z,13.25
2023-02-12T18:01:14.919Z,13.23
2023-02-12T18:03:41.321Z,12.45
2023-02-12T18:06:08.112Z,12.60
2023-02-12T18:08:34.772Z,13.55
2023-02-12T18:11:05.729Z,12.40
2023-02-12T18:13:32.106Z,12.57
2023-02-12T18:15:58.490Z,12.65
2023-02-12T18:18:24.853Z,11.50
2023-02-12T18:20:51.205Z,11.55
2023-02-12T18:23:17.621Z,11.70
2023-02-12T18:25:44.343Z,12.25
2023-02-12T18:28:11.380Z,11.68
2023-02-12T18:30:39.151Z,11.25
2023-02-12T18:33:06.035Z,13.63
2023-02-12T18:35:33.203Z,11.98
2023-02-12T18:37:59.631Z,12.85
2023-02-12T18:40:25.969Z,12.50
2023-02-12T18:42:52.457Z,11.65
2023-02-12T18:45:19.345Z,13.35
2023-02-12T18:47:45.710Z,12.93
2023-02-12T18:50:12.092Z,12.40
2023-02-12T18:52:38.461Z,13.48
2023-02-12T18:55:06.185Z,12.70
2023-02-12T18:57:32.569Z,13.52
2023-02-12T18:59:58.995Z,13.70
2023-02-12T19:02:25.400Z,14.68
2023-02-12T19:04:51.771Z,12.45
2023-02-12T19:07:18.177Z,13.23
2023-02-12T19:09:44.753Z,13.25
2023-02-12T19:12:11.182Z,13.35
2023-02-12T19:14:37.508Z,13.32
2023-02-12T19:17:03.860Z,13.40
2023-02-12T19:19:30.295Z,12.88
2023-02-12T19:21:56.678Z,12.80
2023-02-12T19:24:23.040Z,13.07
2023-02-12T19:26:51.860Z,12.88
2023-02-12T19:29:18.375Z,13.18
2023-02-12T19:31:46.255Z,12.20
2023-02-12T19:34:20.160Z,13.05
2023-02-12T19:36:47.216Z,12.25
2023-02-12T19:39:15.906Z,13.93
2023-02-12T19:41:42.401Z,12.75
2023-02-12T19:44:11.603Z,12.23
2023-02-12T19:46:40.335Z,12.65
2023-02-12T19:49:07.893Z,12.32
2023-02-12T19:51:34.562Z,10.85
2023-02-12T19:54:02.696Z,12.23
2023-02-12T19:56:30.882Z,12.93
2023-02-12T19:58:58.021Z,11.40
2023-02-12T20:01:26.472Z,11.57
2023-02-12T20:03:53.273Z,11.75
2023-02-12T20:06:22.022Z,11.85
2023-02-12T20:08:49.070Z,10.63
2023-02-12T20:11:18.822Z,11.02
2023-02-12T20:13:45.815Z,11.75
2023-02-12T20:16:17.991Z,10.27
2023-02-12T20:18:46.283Z,10.63
2023-02-12T20:21:18.315Z,10.50
2023-02-12T20:23:44.711Z,9.85
2023-02-12T20:26:14.203Z,10.75
2023-02-12T20:28:41.541Z,10.27
2023-02-12T20:31:18.659Z,10.10
2023-02-12T20:33:45.658Z,9.65
2023-02-12T20:36:12.727Z,9.82
2023-02-12T20:38:43.352Z,11.05
2023-02-12T20:41:10.716Z,9.85
2023-02-12T20:43:38.276Z,10.80
2023-02-12T20:46:13.743Z,9.32
2023-02-12T20:48:40.540Z,10.23
2023-02-12T20:51:10.590Z,10.57
2023-02-12T20:53:37.020Z,10.93
2023-02-12T20:56:07.849Z,9.93
2023-02-12T20:58:34.395Z,9.32
2023-02-12T21:01:09.202Z,10.18
2023-02-12T21:03:36.314Z,10.20
2023-02-12T21:06:03.537Z,9.68
2023-02-12T21:08:30.234Z,9.60
2023-02-12T21:11:07.928Z,10.95
2023-02-12T21:13:34.292Z,10.93
2023-02-12T21:16:05.499Z,10.70
2023-02-12T21:18:31.933Z,10.70
2023-02-12T21:21:08.902Z,11.55
2023-02-12T21:23:35.655Z,10.50
2023-02-12T21:26:06.898Z,9.68
2023-02-12T21:28:34.072Z,10.07
2023-02-12T21:31:18.553Z,9.38
2023-02-12T21:33:46.260Z,10.70
2023-02-12T21:36:16.543Z,10.93
2023-02-12T21:38:44.438Z,11.30
2023-02-12T21:41:14.675Z,10.25
2023-02-12T21:43:43.005Z,11.80
2023-02-12T21:46:10.254Z,11.73
2023-02-12T21:48:39.020Z,10.20
2023-02-12T21:51:05.483Z,10.77
2023-02-12T21:53:31.852Z,10.55
2023-02-12T21:56:04.790Z,11.18
2023-02-12T21:58:31.176Z,11.65
2023-02-12T22:01:06.193Z,11.68
2023-02-12T22:03:32.548Z,11.85
2023-02-12T22:06:03.818Z,10.88
2023-02-12T22:08:30.249Z,11.98
2023-02-12T22:10:56.832Z,11.52
2023-02-12T22:13:23.455Z,11.18
2023-02-12T22:15:49.903Z,11.73
2023-02-12T22:18:16.327Z,12.63
2023-02-12T22:20:42.959Z,11.80
2023-02-12T22:23:10.388Z,12.23
2023-02-12T22:25:36.881Z,11.93
2023-02-12T22:28:03.276Z,12.00
2023-02-12T22:30:29.626Z,12.32
2023-02-12T22:32:57.940Z,11.57
2023-02-12T22:35:24.261Z,12.48
2023-02-12T22:37:50.580Z,12.35
2023-02-12T22:40:17.275Z,11.00
2023-02-12T22:42:43.593Z,12.50
2023-02-12T22:45:11.905Z,12.13
2023-02-12T22:47:38.288Z,13.02
2023-02-12T22:50:05.131Z,10.63
2023-02-12T22:52:31.994Z,12.88
2023-02-12T22:54:58.313Z,11.35
2023-02-12T22:57:24.647Z,11.20
2023-02-12T22:59:51.001Z,11.88
2023-02-12T23:02:17.944Z,12.43
2023-02-12T23:04:44.415Z,11.90
2023-02-12T23:07:10.783Z,12.20
2023-02-12T23:09:37.188Z,11.93
2023-02-12T23:12:07.380Z,12.73
2023-02-12T23:14:35.936Z,11.82
2023-02-12T23:17:05.223Z,11.05
2023-02-12T23:19:31.786Z,11.98
2023-02-12T23:21:58.509Z,12.25
2023-02-12T23:24:25.757Z,12.20
2023-02-12T23:26:53.328Z,11.52
2023-02-12T23:29:19.908Z,11.38
2023-02-12T23:31:46.345Z,11.65
2023-02-12T23:34:12.788Z,10.45
2023-02-12T23:36:39.188Z,11.77
2023-02-12T23:39:05.817Z,10.77
2023-02-12T23:41:32.250Z,12.15
2023-02-12T23:43:58.670Z,11.45
2023-02-12T23:46:25.055Z,11.73
2023-02-12T23:48:51.417Z,11.07
2023-02-12T23:51:17.727Z,10.63
2023-02-12T23:53:44.113Z,10.65
2023-02-12T23:56:10.580Z,9.82
2023-02-12T23:58:37.030Z,11.05
